Terminal Aerodrome Forecast
Issued by NWS Cleveland, OH

Home | Current Version | Previous Version | Text Only | Print | Product List | Glossary Off
Versions: 1 2 3 4 5 6 7 8 9 10 11 12 13 14 15

000
FTUS41 KCLE 260535
TAFCAK
TAF
KCAK 260535Z 2606/2706 23005KT P6SM SCT070
     FM260900 25005KT 6SM BR VCSH SCT020 BKN040
      TEMPO 2612/2616 BKN020 OVC040
     FM261600 30005KT P6SM BKN035 OVC250
     FM270000 35003KT P6SM SKC=

USA.gov is the U.S. government's official web portal to all federal, state and local government web resources and services.